createdAt,value
2023-01-17T00:05:20.531Z,8.25
2023-01-17T00:10:49.809Z,7.15
2023-01-17T00:16:14.235Z,8.88
2023-01-17T00:21:54.641Z,10.93
2023-01-17T00:27:16.718Z,9.23
2023-01-17T00:32:40.162Z,9.90
2023-01-17T00:38:03.488Z,9.45
2023-01-17T00:43:44.949Z,10.10
2023-01-17T00:49:27.461Z,8.60
2023-01-17T00:55:08.191Z,8.57
2023-01-17T01:00:48.999Z,12.15
2023-01-17T01:06:31.078Z,10.15
2023-01-17T01:12:11.768Z,10.25
2023-01-17T01:17:58.009Z,10.50
2023-01-17T01:23:46.713Z,9.10
2023-01-17T01:29:32.666Z,8.32
2023-01-17T01:35:01.491Z,9.00
2023-01-17T01:40:31.891Z,8.83
2023-01-17T01:46:00.672Z,8.48
2023-01-17T01:51:33.020Z,7.70
2023-01-17T01:57:04.596Z,8.07
2023-01-17T02:02:33.265Z,7.07
2023-01-17T02:08:03.499Z,7.93
2023-01-17T02:13:33.958Z,7.63
2023-01-17T02:19:12.028Z,7.72
2023-01-17T02:24:51.675Z,7.38
2023-01-17T02:35:56.213Z,7.23
2023-01-17T02:41:28.924Z,6.90
2023-01-17T02:46:58.063Z,6.47
2023-01-17T02:52:45.586Z,6.03
2023-01-17T02:58:20.303Z,6.75
2023-01-17T03:03:50.645Z,7.13
2023-01-17T03:09:21.449Z,7.80
2023-01-17T03:14:50.481Z,6.60
2023-01-17T03:20:21.582Z,6.47
2023-01-17T03:25:52.622Z,6.95
2023-01-17T03:31:21.448Z,6.20
2023-01-17T03:36:50.201Z,6.60
2023-01-17T03:42:19.531Z,7.55
2023-01-17T03:47:48.911Z,7.32
2023-01-17T03:53:17.192Z,7.30
2023-01-17T03:58:46.841Z,7.53
2023-01-17T04:04:16.029Z,9.50
2023-01-17T10:04:12.010Z,19.05
2023-01-17T10:09:46.514Z,18.63
2023-01-17T10:15:27.659Z,17.83
2023-01-17T10:21:00.244Z,18.73
2023-01-17T10:26:28.980Z,22.00
2023-01-17T10:32:00.331Z,20.38
2023-01-17T10:37:37.760Z,21.75
2023-01-17T10:43:11.225Z,18.80
2023-01-17T10:48:41.243Z,21.15
2023-01-17T10:54:16.302Z,20.17
2023-01-17T10:59:45.328Z,18.63
2023-01-17T11:05:19.447Z,19.93
2023-01-17T11:10:50.923Z,19.85
2023-01-17T11:16:21.157Z,21.67
2023-01-17T11:21:51.325Z,21.98
2023-01-17T11:27:26.883Z,21.45
2023-01-17T11:32:57.595Z,20.00
2023-01-17T11:38:26.398Z,18.88
2023-01-17T11:43:58.838Z,21.33
2023-01-17T11:49:27.157Z,21.77
2023-01-17T11:54:56.415Z,20.75
2023-01-17T12:00:31.828Z,22.50
2023-01-17T12:06:04.657Z,21.45
2023-01-17T12:11:38.220Z,22.77
2023-01-17T12:17:14.065Z,22.98
2023-01-17T12:22:58.030Z,24.13
2023-01-17T12:28:33.551Z,21.50
2023-01-17T12:34:08.533Z,23.85
2023-01-17T12:39:38.365Z,22.35
2023-01-17T12:45:10.508Z,21.48
2023-01-17T12:50:42.570Z,22.45
2023-01-17T12:56:15.712Z,21.52
2023-01-17T13:01:45.332Z,20.48
2023-01-17T19:15:39.557Z,21.67
2023-01-17T19:21:09.898Z,22.00
2023-01-17T19:26:37.735Z,20.98
2023-01-17T19:32:11.683Z,23.70
2023-01-17T19:37:40.668Z,22.70
2023-01-17T19:43:09.898Z,23.10
2023-01-17T19:48:40.841Z,23.67
2023-01-17T19:54:11.634Z,27.15
2023-01-17T19:59:40.556Z,23.73
2023-01-17T20:05:11.051Z,24.73
2023-01-17T20:10:39.588Z,24.10
2023-01-17T20:16:09.582Z,22.73
2023-01-17T20:21:39.668Z,24.38
2023-01-17T20:27:08.607Z,22.77
2023-01-17T20:32:37.977Z,22.52
2023-01-17T20:38:10.468Z,24.50
2023-01-17T20:43:39.561Z,25.23
2023-01-17T20:49:13.363Z,22.15
2023-01-17T20:54:44.766Z,21.48
2023-01-17T21:00:15.899Z,20.95
2023-01-17T21:05:46.863Z,25.50
2023-01-17T21:11:23.631Z,23.27
2023-01-17T21:16:52.976Z,21.40
2023-01-17T21:22:22.108Z,21.63
2023-01-17T21:27:53.172Z,24.17
2023-01-17T21:33:31.499Z,19.65
2023-01-17T21:39:05.306Z,22.80
2023-01-17T21:44:38.140Z,22.50
2023-01-17T21:50:07.343Z,22.27
2023-01-17T21:55:54.343Z,22.35
2023-01-17T22:01:25.926Z,20.33
2023-01-17T22:06:54.470Z,20.05
2023-01-17T22:12:23.816Z,22.58
2023-01-17T22:17:53.899Z,20.73
2023-01-17T22:23:22.564Z,20.20
2023-01-17T22:28:51.379Z,18.15
2023-01-17T22:34:22.814Z,23.05
2023-01-17T22:39:51.710Z,21.15
